sensor_id;sensor_type;location;lat;lon;timestamp;temperature;humidity
22956;DHT22;40888;48.148;11.526;2023-02-05T00:00:15;1.50;99.90
22956;DHT22;40888;48.148;11.526;2023-02-05T00:02:41;1.40;99.90
22956;DHT22;40888;48.148;11.526;2023-02-05T00:05:07;1.40;99.90
22956;DHT22;40888;48.148;11.526;2023-02-05T00:07:33;1.40;99.90
22956;DHT22;40888;48.148;11.526;2023-02-05T00:09:59;1.40;99.90
22956;DHT22;40888;48.148;11.526;2023-02-05T00:12:25;1.40;99.90
22956;DHT22;40888;48.148;11.526;2023-02-05T00:14:51;1.50;99.90
22956;DHT22;40888;48.148;11.526;2023-02-05T00:17:16;1.40;99.90
22956;DHT22;40888;48.148;11.526;2023-02-05T00:19:42;1.40;99.90
22956;DHT22;40888;48.148;11.526;2023-02-05T00:22:08;1.40;99.90
22956;DHT22;40888;48.148;11.526;2023-02-05T00:24:34;1.40;99.90
22956;DHT22;40888;48.148;11.526;2023-02-05T00:27:00;1.40;99.90
22956;DHT22;40888;48.148;11.526;2023-02-05T00:29:25;1.40;99.90
22956;DHT22;40888;48.148;11.526;2023-02-05T00:31:51;1.30;99.90
22956;DHT22;40888;48.148;11.526;2023-02-05T00:34:17;1.40;99.90
22956;DHT22;40888;48.148;11.526;2023-02-05T00:36:43;1.40;99.90
22956;DHT22;40888;48.148;11.526;2023-02-05T00:39:09;1.40;99.90
22956;DHT22;40888;48.148;11.526;2023-02-05T00:41:36;1.30;99.90
22956;DHT22;40888;48.148;11.526;2023-02-05T00:44:03;1.30;99.90
22956;DHT22;40888;48.148;11.526;2023-02-05T00:46:29;1.40;99.90
22956;DHT22;40888;48.148;11.526;2023-02-05T00:48:54;1.30;99.90
22956;DHT22;40888;48.148;11.526;2023-02-05T00:51:20;1.40;99.90
22956;DHT22;40888;48.148;11.526;2023-02-05T00:53:46;1.40;99.90
22956;DHT22;40888;48.148;11.526;2023-02-05T00:56:12;1.30;99.90
22956;DHT22;40888;48.148;11.526;2023-02-05T00:58:37;1.40;99.90
22956;DHT22;40888;48.148;11.526;2023-02-05T01:01:04;1.40;99.90
22956;DHT22;40888;48.148;11.526;2023-02-05T01:03:30;1.40;99.90
22956;DHT22;40888;48.148;11.526;2023-02-05T01:05:55;1.30;99.90
22956;DHT22;40888;48.148;11.526;2023-02-05T01:08:22;1.30;99.90
22956;DHT22;40888;48.148;11.526;2023-02-05T01:10:50;1.30;99.90
22956;DHT22;40888;48.148;11.526;2023-02-05T01:13:17;1.20;99.90
22956;DHT22;40888;48.148;11.526;2023-02-05T01:15:43;1.20;99.90
22956;DHT22;40888;48.148;11.526;2023-02-05T01:18:09;1.20;99.90
22956;DHT22;40888;48.148;11.526;2023-02-05T01:20:40;1.20;99.90
22956;DHT22;40888;48.148;11.526;2023-02-05T01:23:06;1.20;99.90
22956;DHT22;40888;48.148;11.526;2023-02-05T01:25:31;1.10;99.90
22956;DHT22;40888;48.148;11.526;2023-02-05T01:27:57;1.10;99.90
22956;DHT22;40888;48.148;11.526;2023-02-05T01:30:23;1.00;99.90
22956;DHT22;40888;48.148;11.526;2023-02-05T01:32:49;1.00;99.90
22956;DHT22;40888;48.148;11.526;2023-02-05T01:35:14;1.00;99.90
22956;DHT22;40888;48.148;11.526;2023-02-05T01:37:40;1.00;99.90
22956;DHT22;40888;48.148;11.526;2023-02-05T01:40:06;0.90;99.90
22956;DHT22;40888;48.148;11.526;2023-02-05T01:42:33;0.90;99.90
22956;DHT22;40888;48.148;11.526;2023-02-05T01:47:51;1.00;99.90
22956;DHT22;40888;48.148;11.526;2023-02-05T01:50:27;1.00;99.90
22956;DHT22;40888;48.148;11.526;2023-02-05T01:52:56;0.90;99.90
22956;DHT22;40888;48.148;11.526;2023-02-05T01:55:23;1.00;99.90
22956;DHT22;40888;48.148;11.526;2023-02-05T01:57:49;1.00;99.90
22956;DHT22;40888;48.148;11.526;2023-02-05T02:00:16;1.00;99.90
22956;DHT22;40888;48.148;11.526;2023-02-05T02:02:41;1.00;99.90
22956;DHT22;40888;48.148;11.526;2023-02-05T02:05:12;1.00;99.90
22956;DHT22;40888;48.148;11.526;2023-02-05T02:07:39;0.90;99.90
22956;DHT22;40888;48.148;11.526;2023-02-05T02:10:06;1.00;99.90
22956;DHT22;40888;48.148;11.526;2023-02-05T02:12:34;1.00;99.90
22956;DHT22;40888;48.148;11.526;2023-02-05T02:15:08;0.90;99.90
22956;DHT22;40888;48.148;11.526;2023-02-05T02:17:36;0.90;99.90
22956;DHT22;40888;48.148;11.526;2023-02-05T02:20:11;1.00;99.90
22956;DHT22;40888;48.148;11.526;2023-02-05T02:31:00;0.90;99.90
22956;DHT22;40888;48.148;11.526;2023-02-05T02:36:17;0.90;99.90
22956;DHT22;40888;48.148;11.526;2023-02-05T02:39:02;0.90;99.90
22956;DHT22;40888;48.148;11.526;2023-02-05T02:41:54;1.00;99.90
22956;DHT22;40888;48.148;11.526;2023-02-05T02:44:31;1.00;99.90
22956;DHT22;40888;48.148;11.526;2023-02-05T02:47:02;1.00;99.90
22956;DHT22;40888;48.148;11.526;2023-02-05T02:49:34;1.00;99.90
22956;DHT22;40888;48.148;11.526;2023-02-05T02:52:04;1.00;99.90
22956;DHT22;40888;48.148;11.526;2023-02-05T02:54:32;1.00;99.90
22956;DHT22;40888;48.148;11.526;2023-02-05T02:57:00;1.00;99.90
22956;DHT22;40888;48.148;11.526;2023-02-05T02:59:29;1.00;99.90
22956;DHT22;40888;48.148;11.526;2023-02-05T03:01:59;1.00;99.90
22956;DHT22;40888;48.148;11.526;2023-02-05T03:04:35;1.00;99.90
22956;DHT22;40888;48.148;11.526;2023-02-05T03:07:16;1.00;99.90
22956;DHT22;40888;48.148;11.526;2023-02-05T03:12:09;1.00;99.90
22956;DHT22;40888;48.148;11.526;2023-02-05T03:14:34;1.00;99.90
22956;DHT22;40888;48.148;11.526;2023-02-05T03:17:00;1.00;99.90
22956;DHT22;40888;48.148;11.526;2023-02-05T03:19:26;0.90;99.90
22956;DHT22;40888;48.148;11.526;2023-02-05T03:22:00;1.00;99.90
22956;DHT22;40888;48.148;11.526;2023-02-05T03:24:27;1.00;99.90
22956;DHT22;40888;48.148;11.526;2023-02-05T03:26:53;1.00;99.90
22956;DHT22;40888;48.148;11.526;2023-02-05T03:29:25;1.00;99.90
22956;DHT22;40888;48.148;11.526;2023-02-05T03:35:02;0.80;99.90
22956;DHT22;40888;48.148;11.526;2023-02-05T03:59:17;0.70;99.90
22956;DHT22;40888;48.148;11.526;2023-02-05T04:01:44;0.60;99.90
22956;DHT22;40888;48.148;11.526;2023-02-05T04:04:10;0.60;99.90
22956;DHT22;40888;48.148;11.526;2023-02-05T04:06:36;0.60;99.90
22956;DHT22;40888;48.148;11.526;2023-02-05T04:09:02;0.70;99.90
22956;DHT22;40888;48.148;11.526;2023-02-05T04:11:27;0.60;99.90
22956;DHT22;40888;48.148;11.526;2023-02-05T04:13:53;0.60;99.90
22956;DHT22;40888;48.148;11.526;2023-02-05T04:16:19;0.60;99.90
22956;DHT22;40888;48.148;11.526;2023-02-05T04:18:45;0.60;99.90
22956;DHT22;40888;48.148;11.526;2023-02-05T04:21:10;0.60;99.90
22956;DHT22;40888;48.148;11.526;2023-02-05T04:23:36;0.60;99.90
22956;DHT22;40888;48.148;11.526;2023-02-05T04:26:02;0.50;99.90
22956;DHT22;40888;48.148;11.526;2023-02-05T04:28:28;0.60;99.90
22956;DHT22;40888;48.148;11.526;2023-02-05T04:30:53;0.60;99.90
22956;DHT22;40888;48.148;11.526;2023-02-05T04:33:19;0.60;99.90
22956;DHT22;40888;48.148;11.526;2023-02-05T04:35:45;0.50;99.90
22956;DHT22;40888;48.148;11.526;2023-02-05T04:38:11;0.60;99.90
22956;DHT22;40888;48.148;11.526;2023-02-05T04:40:36;0.60;99.90
22956;DHT22;40888;48.148;11.526;2023-02-05T04:43:02;0.50;99.90
22956;DHT22;40888;48.148;11.526;2023-02-05T04:45:28;0.50;99.90
22956;DHT22;40888;48.148;11.526;2023-02-05T04:47:56;0.50;99.90
22956;DHT22;40888;48.148;11.526;2023-02-05T04:50:22;0.50;99.90
22956;DHT22;40888;48.148;11.526;2023-02-05T04:52:48;0.50;99.90
22956;DHT22;40888;48.148;11.526;2023-02-05T04:55:13;0.40;99.90
22956;DHT22;40888;48.148;11.526;2023-02-05T04:57:39;0.30;99.90
22956;DHT22;40888;48.148;11.526;2023-02-05T05:00:05;0.40;99.90
22956;DHT22;40888;48.148;11.526;2023-02-05T05:02:31;0.30;99.90
22956;DHT22;40888;48.148;11.526;2023-02-05T05:04:57;0.40;99.90
22956;DHT22;40888;48.148;11.526;2023-02-05T05:07:23;0.30;99.90
22956;DHT22;40888;48.148;11.526;2023-02-05T05:09:48;0.30;99.90
22956;DHT22;40888;48.148;11.526;2023-02-05T05:12:14;0.30;99.90
22956;DHT22;40888;48.148;11.526;2023-02-05T05:14:40;0.20;99.90
22956;DHT22;40888;48.148;11.526;2023-02-05T05:17:05;0.30;99.90
22956;DHT22;40888;48.148;11.526;2023-02-05T05:19:31;0.30;99.90
22956;DHT22;40888;48.148;11.526;2023-02-05T05:21:57;0.30;99.90
22956;DHT22;40888;48.148;11.526;2023-02-05T05:24:23;0.40;99.90
22956;DHT22;40888;48.148;11.526;2023-02-05T05:26:49;0.40;99.90
22956;DHT22;40888;48.148;11.526;2023-02-05T05:29:15;0.30;99.90
22956;DHT22;40888;48.148;11.526;2023-02-05T05:31:41;0.30;99.90
22956;DHT22;40888;48.148;11.526;2023-02-05T05:34:07;0.30;99.90
22956;DHT22;40888;48.148;11.526;2023-02-05T05:36:33;0.30;99.90
22956;DHT22;40888;48.148;11.526;2023-02-05T05:38:58;0.20;99.90
22956;DHT22;40888;48.148;11.526;2023-02-05T05:41:44;0.20;99.90
22956;DHT22;40888;48.148;11.526;2023-02-05T05:44:28;0.20;99.90
22956;DHT22;40888;48.148;11.526;2023-02-05T05:46:54;0.20;99.90
22956;DHT22;40888;48.148;11.526;2023-02-05T05:49:20;0.10;99.90
22956;DHT22;40888;48.148;11.526;2023-02-05T05:51:45;0.10;99.90
22956;DHT22;40888;48.148;11.526;2023-02-05T05:54:11;0.10;99.90
22956;DHT22;40888;48.148;11.526;2023-02-05T05:56:37;0.10;99.90
22956;DHT22;40888;48.148;11.526;2023-02-05T05:59:03;0.10;99.90
22956;DHT22;40888;48.148;11.526;2023-02-05T06:01:29;0.10;99.90
22956;DHT22;40888;48.148;11.526;2023-02-05T06:03:55;0.10;99.90
22956;DHT22;40888;48.148;11.526;2023-02-05T06:06:20;0.10;99.90
22956;DHT22;40888;48.148;11.526;2023-02-05T06:08:46;0.00;99.90
22956;DHT22;40888;48.148;11.526;2023-02-05T06:11:12;-0.10;99.90
22956;DHT22;40888;48.148;11.526;2023-02-05T06:13:38;0.00;99.90
22956;DHT22;40888;48.148;11.526;2023-02-05T06:16:04;0.00;99.90
22956;DHT22;40888;48.148;11.526;2023-02-05T06:18:30;-0.10;99.90
22956;DHT22;40888;48.148;11.526;2023-02-05T06:20:55;-0.10;99.90
22956;DHT22;40888;48.148;11.526;2023-02-05T06:23:21;0.00;99.90
22956;DHT22;40888;48.148;11.526;2023-02-05T06:25:47;0.00;99.90
22956;DHT22;40888;48.148;11.526;2023-02-05T06:28:12;0.10;99.90
22956;DHT22;40888;48.148;11.526;2023-02-05T06:30:38;0.10;99.90
22956;DHT22;40888;48.148;11.526;2023-02-05T06:33:04;0.10;99.90
22956;DHT22;40888;48.148;11.526;2023-02-05T06:35:30;0.20;99.90
22956;DHT22;40888;48.148;11.526;2023-02-05T06:37:55;0.10;99.90
22956;DHT22;40888;48.148;11.526;2023-02-05T06:40:21;0.10;99.90
22956;DHT22;40888;48.148;11.526;2023-02-05T06:42:52;0.10;99.90
22956;DHT22;40888;48.148;11.526;2023-02-05T06:45:18;0.10;99.90
22956;DHT22;40888;48.148;11.526;2023-02-05T06:47:43;0.00;99.90
22956;DHT22;40888;48.148;11.526;2023-02-05T06:50:09;0.00;99.90
22956;DHT22;40888;48.148;11.526;2023-02-05T06:52:36;0.10;99.90
22956;DHT22;40888;48.148;11.526;2023-02-05T06:55:02;0.00;99.90
22956;DHT22;40888;48.148;11.526;2023-02-05T06:57:28;0.10;99.90
22956;DHT22;40888;48.148;11.526;2023-02-05T06:59:56;0.10;99.90
22956;DHT22;40888;48.148;11.526;2023-02-05T07:02:23;0.10;99.90
22956;DHT22;40888;48.148;11.526;2023-02-05T07:04:48;0.10;99.90
22956;DHT22;40888;48.148;11.526;2023-02-05T07:07:14;0.00;99.90
22956;DHT22;40888;48.148;11.526;2023-02-05T07:09:41;0.10;99.90
22956;DHT22;40888;48.148;11.526;2023-02-05T07:12:07;0.20;99.90
22956;DHT22;40888;48.148;11.526;2023-02-05T07:14:37;0.20;99.90
22956;DHT22;40888;48.148;11.526;2023-02-05T07:17:03;0.20;99.90
22956;DHT22;40888;48.148;11.526;2023-02-05T07:19:29;0.30;99.90
22956;DHT22;40888;48.148;11.526;2023-02-05T07:21:55;0.40;99.90
22956;DHT22;40888;48.148;11.526;2023-02-05T07:24:20;0.60;99.90
22956;DHT22;40888;48.148;11.526;2023-02-05T07:26:46;0.90;99.90
22956;DHT22;40888;48.148;11.526;2023-02-05T07:29:12;1.00;99.90
22956;DHT22;40888;48.148;11.526;2023-02-05T07:31:38;1.00;99.90
22956;DHT22;40888;48.148;11.526;2023-02-05T07:34:03;1.10;99.90
22956;DHT22;40888;48.148;11.526;2023-02-05T07:36:29;1.00;99.90
22956;DHT22;40888;48.148;11.526;2023-02-05T07:38:55;1.10;99.90
22956;DHT22;40888;48.148;11.526;2023-02-05T07:41:21;1.20;99.90
22956;DHT22;40888;48.148;11.526;2023-02-05T07:43:50;1.20;99.90
22956;DHT22;40888;48.148;11.526;2023-02-05T07:46:16;1.30;99.90
22956;DHT22;40888;48.148;11.526;2023-02-05T07:48:42;1.40;99.90
22956;DHT22;40888;48.148;11.526;2023-02-05T07:51:18;1.70;99.90
22956;DHT22;40888;48.148;11.526;2023-02-05T07:53:44;2.20;99.90
22956;DHT22;40888;48.148;11.526;2023-02-05T07:56:10;2.50;99.90
22956;DHT22;40888;48.148;11.526;2023-02-05T07:58:36;3.10;99.90
22956;DHT22;40888;48.148;11.526;2023-02-05T08:01:03;3.50;99.90
22956;DHT22;40888;48.148;11.526;2023-02-05T08:03:29;4.00;99.90
22956;DHT22;40888;48.148;11.526;2023-02-05T08:05:55;4.20;99.90
22956;DHT22;40888;48.148;11.526;2023-02-05T08:08:21;4.40;99.90
22956;DHT22;40888;48.148;11.526;2023-02-05T08:10:53;4.80;99.90
22956;DHT22;40888;48.148;11.526;2023-02-05T08:13:20;5.20;99.90
22956;DHT22;40888;48.148;11.526;2023-02-05T08:15:45;6.30;99.80
22956;DHT22;40888;48.148;11.526;2023-02-05T08:18:11;7.20;90.50
22956;DHT22;40888;48.148;11.526;2023-02-05T08:20:37;7.50;81.20
22956;DHT22;40888;48.148;11.526;2023-02-05T08:23:02;8.20;73.80
22956;DHT22;40888;48.148;11.526;2023-02-05T08:25:30;9.30;66.80
22956;DHT22;40888;48.148;11.526;2023-02-05T08:27:55;9.90;61.10
22956;DHT22;40888;48.148;11.526;2023-02-05T08:30:21;10.20;60.10
22956;DHT22;40888;48.148;11.526;2023-02-05T08:32:49;10.80;57.80
22956;DHT22;40888;48.148;11.526;2023-02-05T08:35:15;12.20;52.40
22956;DHT22;40888;48.148;11.526;2023-02-05T08:37:41;11.40;52.80
22956;DHT22;40888;48.148;11.526;2023-02-05T08:40:07;12.30;50.50
22956;DHT22;40888;48.148;11.526;2023-02-05T08:42:35;12.60;48.90
22956;DHT22;40888;48.148;11.526;2023-02-05T08:45:01;13.40;47.30
22956;DHT22;40888;48.148;11.526;2023-02-05T08:47:28;13.50;46.30
22956;DHT22;40888;48.148;11.526;2023-02-05T08:49:54;13.20;45.80
22956;DHT22;40888;48.148;11.526;2023-02-05T08:52:19;12.60;46.80
22956;DHT22;40888;48.148;11.526;2023-02-05T08:54:45;12.40;47.50
22956;DHT22;40888;48.148;11.526;2023-02-05T08:57:12;12.40;47.70
22956;DHT22;40888;48.148;11.526;2023-02-05T08:59:38;12.80;47.20
22956;DHT22;40888;48.148;11.526;2023-02-05T09:02:04;12.70;46.80
22956;DHT22;40888;48.148;11.526;2023-02-05T09:04:29;12.10;48.50
22956;DHT22;40888;48.148;11.526;2023-02-05T09:06:56;13.00;47.80
22956;DHT22;40888;48.148;11.526;2023-02-05T09:09:21;13.70;46.90
22956;DHT22;40888;48.148;11.526;2023-02-05T09:11:48;14.50;44.90
22956;DHT22;40888;48.148;11.526;2023-02-05T09:14:14;14.10;44.40
22956;DHT22;40888;48.148;11.526;2023-02-05T09:16:40;15.10;43.00
22956;DHT22;40888;48.148;11.526;2023-02-05T09:19:06;14.10;44.50
22956;DHT22;40888;48.148;11.526;2023-02-05T09:21:33;14.60;44.10
22956;DHT22;40888;48.148;11.526;2023-02-05T09:23:59;14.00;45.10
22956;DHT22;40888;48.148;11.526;2023-02-05T09:26:25;14.60;44.60
22956;DHT22;40888;48.148;11.526;2023-02-05T09:28:50;15.20;42.80
22956;DHT22;40888;48.148;11.526;2023-02-05T09:31:18;15.00;43.30
22956;DHT22;40888;48.148;11.526;2023-02-05T09:33:45;15.40;42.50
22956;DHT22;40888;48.148;11.526;2023-02-05T09:36:16;15.80;42.10
22956;DHT22;40888;48.148;11.526;2023-02-05T09:38:43;15.30;42.80
22956;DHT22;40888;48.148;11.526;2023-02-05T09:46:56;14.80;42.90
22956;DHT22;40888;48.148;11.526;2023-02-05T09:49:36;14.90;43.50
22956;DHT22;40888;48.148;11.526;2023-02-05T09:52:19;14.90;44.00
22956;DHT22;40888;48.148;11.526;2023-02-05T09:54:54;14.70;44.50
22956;DHT22;40888;48.148;11.526;2023-02-05T09:57:35;13.00;48.30
22956;DHT22;40888;48.148;11.526;2023-02-05T10:06:15;12.50;49.10
22956;DHT22;40888;48.148;11.526;2023-02-05T10:08:59;12.60;49.00
22956;DHT22;40888;48.148;11.526;2023-02-05T10:15:08;11.80;50.80
22956;DHT22;40888;48.148;11.526;2023-02-05T10:18:12;10.60;53.20
22956;DHT22;40888;48.148;11.526;2023-02-05T10:23:44;9.90;55.80
22956;DHT22;40888;48.148;11.526;2023-02-05T10:26:25;10.30;53.50
22956;DHT22;40888;48.148;11.526;2023-02-05T10:29:22;10.30;54.30
22956;DHT22;40888;48.148;11.526;2023-02-05T10:32:01;10.40;54.70
22956;DHT22;40888;48.148;11.526;2023-02-05T10:37:53;9.80;56.40
22956;DHT22;40888;48.148;11.526;2023-02-05T10:40:26;8.60;59.80
22956;DHT22;40888;48.148;11.526;2023-02-05T10:42:54;8.70;61.00
22956;DHT22;40888;48.148;11.526;2023-02-05T10:45:25;8.10;63.50
22956;DHT22;40888;48.148;11.526;2023-02-05T10:50:58;8.00;67.70
22956;DHT22;40888;48.148;11.526;2023-02-05T10:53:26;7.80;68.50
22956;DHT22;40888;48.148;11.526;2023-02-05T10:55:52;8.10;67.00
22956;DHT22;40888;48.148;11.526;2023-02-05T11:01:15;7.50;67.50
22956;DHT22;40888;48.148;11.526;2023-02-05T11:03:53;7.00;68.90
22956;DHT22;40888;48.148;11.526;2023-02-05T11:06:20;7.20;69.90
22956;DHT22;40888;48.148;11.526;2023-02-05T11:08:47;7.10;69.20
22956;DHT22;40888;48.148;11.526;2023-02-05T11:11:24;6.90;72.70
22956;DHT22;40888;48.148;11.526;2023-02-05T11:13:58;7.00;74.80
22956;DHT22;40888;48.148;11.526;2023-02-05T11:16:39;6.90;78.20
22956;DHT22;40888;48.148;11.526;2023-02-05T11:19:27;6.40;76.50
22956;DHT22;40888;48.148;11.526;2023-02-05T11:27:22;5.20;99.90
22956;DHT22;40888;48.148;11.526;2023-02-05T11:29:50;5.20;99.90
22956;DHT22;40888;48.148;11.526;2023-02-05T11:34:45;4.90;99.90
22956;DHT22;40888;48.148;11.526;2023-02-05T11:37:16;4.90;99.90
22956;DHT22;40888;48.148;11.526;2023-02-05T11:39:44;4.80;99.90
22956;DHT22;40888;48.148;11.526;2023-02-05T11:42:21;4.80;99.90
22956;DHT22;40888;48.148;11.526;2023-02-05T11:44:59;4.80;99.90
22956;DHT22;40888;48.148;11.526;2023-02-05T11:47:27;4.90;99.90
22956;DHT22;40888;48.148;11.526;2023-02-05T11:49:54;4.80;99.90
22956;DHT22;40888;48.148;11.526;2023-02-05T11:52:26;4.80;99.90
22956;DHT22;40888;48.148;11.526;2023-02-05T11:54:53;4.80;99.90
22956;DHT22;40888;48.148;11.526;2023-02-05T12:02:38;4.70;99.90
22956;DHT22;40888;48.148;11.526;2023-02-05T12:05:17;4.60;99.90
22956;DHT22;40888;48.148;11.526;2023-02-05T12:08:23;4.70;99.90
22956;DHT22;40888;48.148;11.526;2023-02-05T12:11:08;4.60;99.90
22956;DHT22;40888;48.148;11.526;2023-02-05T12:19:16;4.50;99.90
22956;DHT22;40888;48.148;11.526;2023-02-05T12:25:08;4.60;99.90
22956;DHT22;40888;48.148;11.526;2023-02-05T12:27:43;4.60;99.90
22956;DHT22;40888;48.148;11.526;2023-02-05T12:30:45;4.50;99.90
22956;DHT22;40888;48.148;11.526;2023-02-05T12:36:10;4.40;99.90
22956;DHT22;40888;48.148;11.526;2023-02-05T12:41:48;4.40;99.90
22956;DHT22;40888;48.148;11.526;2023-02-05T12:44:48;4.30;99.90
22956;DHT22;40888;48.148;11.526;2023-02-05T12:55:31;4.30;99.90
22956;DHT22;40888;48.148;11.526;2023-02-05T12:58:02;4.20;99.90
22956;DHT22;40888;48.148;11.526;2023-02-05T13:00:53;4.30;99.90
22956;DHT22;40888;48.148;11.526;2023-02-05T13:03:41;4.20;99.90
22956;DHT22;40888;48.148;11.526;2023-02-05T13:06:24;4.20;99.90
22956;DHT22;40888;48.148;11.526;2023-02-05T13:09:03;4.10;99.90
22956;DHT22;40888;48.148;11.526;2023-02-05T13:11:58;4.00;99.90
22956;DHT22;40888;48.148;11.526;2023-02-05T13:14:33;4.10;99.90
22956;DHT22;40888;48.148;11.526;2023-02-05T13:19:59;4.00;99.90
22956;DHT22;40888;48.148;11.526;2023-02-05T13:22:38;4.00;99.90
22956;DHT22;40888;48.148;11.526;2023-02-05T13:25:29;4.00;99.90
22956;DHT22;40888;48.148;11.526;2023-02-05T13:28:35;4.00;99.90
22956;DHT22;40888;48.148;11.526;2023-02-05T13:31:29;3.80;99.90
22956;DHT22;40888;48.148;11.526;2023-02-05T13:33:56;3.50;99.90
22956;DHT22;40888;48.148;11.526;2023-02-05T13:45:03;3.50;99.90
22956;DHT22;40888;48.148;11.526;2023-02-05T13:50:42;3.50;99.90
22956;DHT22;40888;48.148;11.526;2023-02-05T13:59:43;3.20;99.90
22956;DHT22;40888;48.148;11.526;2023-02-05T14:01:53;3.20;99.90
22956;DHT22;40888;48.148;11.526;2023-02-05T14:04:33;3.30;99.90
22956;DHT22;40888;48.148;11.526;2023-02-05T14:07:21;3.40;99.90
22956;DHT22;40888;48.148;11.526;2023-02-05T14:09:51;3.40;99.90
22956;DHT22;40888;48.148;11.526;2023-02-05T14:12:35;3.30;99.90
22956;DHT22;40888;48.148;11.526;2023-02-05T14:22:53;3.30;99.90
22956;DHT22;40888;48.148;11.526;2023-02-05T14:28:03;3.30;99.90
22956;DHT22;40888;48.148;11.526;2023-02-05T14:33:00;3.40;99.90
22956;DHT22;40888;48.148;11.526;2023-02-05T14:35:32;3.40;99.90
22956;DHT22;40888;48.148;11.526;2023-02-05T14:38:22;3.40;99.90
22956;DHT22;40888;48.148;11.526;2023-02-05T14:41:14;3.30;99.90
22956;DHT22;40888;48.148;11.526;2023-02-05T14:43:43;3.40;99.90
22956;DHT22;40888;48.148;11.526;2023-02-05T14:46:31;3.40;99.90
22956;DHT22;40888;48.148;11.526;2023-02-05T14:49:00;3.40;99.90
22956;DHT22;40888;48.148;11.526;2023-02-05T14:51:37;3.40;99.90
22956;DHT22;40888;48.148;11.526;2023-02-05T14:54:23;3.30;99.90
22956;DHT22;40888;48.148;11.526;2023-02-05T14:56:53;3.30;99.90
22956;DHT22;40888;48.148;11.526;2023-02-05T14:59:28;3.30;99.90
22956;DHT22;40888;48.148;11.526;2023-02-05T15:01:56;3.30;99.90
22956;DHT22;40888;48.148;11.526;2023-02-05T15:06:51;3.20;99.90
22956;DHT22;40888;48.148;11.526;2023-02-05T15:09:22;3.30;99.90
22956;DHT22;40888;48.148;11.526;2023-02-05T15:14:55;3.20;99.90
22956;DHT22;40888;48.148;11.526;2023-02-05T15:19:56;3.20;99.90
22956;DHT22;40888;48.148;11.526;2023-02-05T15:22:34;3.20;99.90
22956;DHT22;40888;48.148;11.526;2023-02-05T15:25:03;3.20;99.90
22956;DHT22;40888;48.148;11.526;2023-02-05T15:27:44;3.30;99.90
22956;DHT22;40888;48.148;11.526;2023-02-05T15:30:22;3.30;99.90
22956;DHT22;40888;48.148;11.526;2023-02-05T15:32:53;3.20;99.90
22956;DHT22;40888;48.148;11.526;2023-02-05T15:35:24;3.20;99.90
22956;DHT22;40888;48.148;11.526;2023-02-05T15:37:57;3.10;99.90
22956;DHT22;40888;48.148;11.526;2023-02-05T15:40:28;3.00;99.90
22956;DHT22;40888;48.148;11.526;2023-02-05T15:43:16;3.00;99.90
22956;DHT22;40888;48.148;11.526;2023-02-05T15:45:44;3.10;99.90
22956;DHT22;40888;48.148;11.526;2023-02-05T15:48:12;3.00;99.90
22956;DHT22;40888;48.148;11.526;2023-02-05T15:50:54;3.10;99.90
22956;DHT22;40888;48.148;11.526;2023-02-05T15:53:36;3.00;99.90
22956;DHT22;40888;48.148;11.526;2023-02-05T15:58:58;3.00;99.90
22956;DHT22;40888;48.148;11.526;2023-02-05T16:01:46;3.00;99.90
22956;DHT22;40888;48.148;11.526;2023-02-05T16:04:26;3.00;99.90
22956;DHT22;40888;48.148;11.526;2023-02-05T16:06:52;3.00;99.90
22956;DHT22;40888;48.148;11.526;2023-02-05T16:09:20;3.00;99.90
22956;DHT22;40888;48.148;11.526;2023-02-05T16:11:46;3.00;99.90
22956;DHT22;40888;48.148;11.526;2023-02-05T16:14:21;3.10;99.90
22956;DHT22;40888;48.148;11.526;2023-02-05T16:17:07;3.00;99.90
22956;DHT22;40888;48.148;11.526;2023-02-05T16:19:54;3.10;99.90
22956;DHT22;40888;48.148;11.526;2023-02-05T16:22:30;3.10;99.90
22956;DHT22;40888;48.148;11.526;2023-02-05T16:25:02;3.10;99.90
22956;DHT22;40888;48.148;11.526;2023-02-05T16:27:39;3.00;99.90
22956;DHT22;40888;48.148;11.526;2023-02-05T16:30:19;3.00;99.90
22956;DHT22;40888;48.148;11.526;2023-02-05T16:32:46;2.90;99.90
22956;DHT22;40888;48.148;11.526;2023-02-05T16:35:36;3.00;99.90
22956;DHT22;40888;48.148;11.526;2023-02-05T16:38:03;3.00;99.90
22956;DHT22;40888;48.148;11.526;2023-02-05T16:40:40;3.00;99.90
22956;DHT22;40888;48.148;11.526;2023-02-05T16:43:36;3.00;99.90
22956;DHT22;40888;48.148;11.526;2023-02-05T16:48:32;2.90;99.90
22956;DHT22;40888;48.148;11.526;2023-02-05T16:50:58;2.90;99.90
22956;DHT22;40888;48.148;11.526;2023-02-05T16:53:35;2.90;99.90
22956;DHT22;40888;48.148;11.526;2023-02-05T16:56:12;2.90;99.90
22956;DHT22;40888;48.148;11.526;2023-02-05T16:58:47;2.90;99.90
22956;DHT22;40888;48.148;11.526;2023-02-05T17:01:21;2.90;99.90
22956;DHT22;40888;48.148;11.526;2023-02-05T17:03:49;2.90;99.90
22956;DHT22;40888;48.148;11.526;2023-02-05T17:06:16;2.90;99.90
22956;DHT22;40888;48.148;11.526;2023-02-05T17:08:50;2.80;99.90
22956;DHT22;40888;48.148;11.526;2023-02-05T17:11:39;2.80;99.90
22956;DHT22;40888;48.148;11.526;2023-02-05T17:14:31;2.80;99.90
22956;DHT22;40888;48.148;11.526;2023-02-05T17:17:00;2.90;99.90
22956;DHT22;40888;48.148;11.526;2023-02-05T17:19:28;2.90;99.90
22956;DHT22;40888;48.148;11.526;2023-02-05T17:24:41;2.80;99.90
22956;DHT22;40888;48.148;11.526;2023-02-05T17:27:14;2.90;99.90
22956;DHT22;40888;48.148;11.526;2023-02-05T17:29:40;2.90;99.90
22956;DHT22;40888;48.148;11.526;2023-02-05T17:32:08;2.90;99.90
22956;DHT22;40888;48.148;11.526;2023-02-05T17:34:38;2.80;99.90
22956;DHT22;40888;48.148;11.526;2023-02-05T17:37:03;2.80;99.90
22956;DHT22;40888;48.148;11.526;2023-02-05T17:39:29;2.70;99.90
22956;DHT22;40888;48.148;11.526;2023-02-05T17:41:55;2.70;99.90
22956;DHT22;40888;48.148;11.526;2023-02-05T17:44:32;2.80;99.90
22956;DHT22;40888;48.148;11.526;2023-02-05T17:46:59;2.90;99.90
22956;DHT22;40888;48.148;11.526;2023-02-05T17:49:25;2.90;99.90
22956;DHT22;40888;48.148;11.526;2023-02-05T17:51:51;2.90;99.90
22956;DHT22;40888;48.148;11.526;2023-02-05T17:54:20;2.90;99.90
22956;DHT22;40888;48.148;11.526;2023-02-05T17:56:46;2.80;99.90
22956;DHT22;40888;48.148;11.526;2023-02-05T17:59:15;2.80;99.90
22956;DHT22;40888;48.148;11.526;2023-02-05T18:01:41;2.80;99.90
22956;DHT22;40888;48.148;11.526;2023-02-05T18:04:06;2.70;99.90
22956;DHT22;40888;48.148;11.526;2023-02-05T18:06:33;2.70;99.90
22956;DHT22;40888;48.148;11.526;2023-02-05T18:08:59;2.70;99.90
22956;DHT22;40888;48.148;11.526;2023-02-05T18:11:25;2.70;99.90
22956;DHT22;40888;48.148;11.526;2023-02-05T18:13:50;2.70;99.90
22956;DHT22;40888;48.148;11.526;2023-02-05T18:16:16;2.70;99.90
22956;DHT22;40888;48.148;11.526;2023-02-05T18:18:42;2.70;99.90
22956;DHT22;40888;48.148;11.526;2023-02-05T18:21:08;2.70;99.90
22956;DHT22;40888;48.148;11.526;2023-02-05T18:23:33;2.60;99.90